Time;durP1;ratioP1;P1;durP2;ratioP2;P2;SDS_P1;SDS_P2;PMS_P1;PMS_P2;Temp;Humidity;BMP_temperature;BMP_pressure;BME280_temperature;BME280_humidity;BME280_pressure;Samples;Min_cycle;Max_cycle;Signal;HPM_P1;HPM_P2
2024/03/14 00:02:15;;;;;;;14.60;12.17;;;;;;;10.32;100.00;101350.28;7735731;22;20211;-68
2024/03/14 00:05:39;;;;;;;14.17;12.67;;;;;;;10.32;100.00;101341.31;7741095;22;20293;-69
2024/03/14 00:09:00;;;;;;;11.70;10.60;;;;;;;10.32;100.00;101349.41;7754437;22;20620;-68
2024/03/14 00:12:22;;;;;;;17.50;13.80;;;;;;;10.29;100.00;101346.94;7751573;22;20203;-68
2024/03/14 00:15:43;;;;;;;13.83;12.43;;;;;;;10.30;100.00;101348.66;7739582;22;20210;-69
2024/03/14 00:19:04;;;;;;;14.10;12.67;;;;;;;10.29;100.00;101349.63;7748839;22;20301;-69
2024/03/14 00:22:25;;;;;;;12.97;11.57;;;;;;;10.32;100.00;101344.00;7746695;22;20206;-69
2024/03/14 00:25:47;;;;;;;17.53;12.40;;;;;;;10.33;100.00;101351.97;7743320;22;20210;-68
2024/03/14 00:29:08;;;;;;;14.87;13.33;;;;;;;10.36;100.00;101345.47;7758086;22;20214;-69
2024/03/14 00:32:30;;;;;;;14.70;12.87;;;;;;;10.29;100.00;101342.41;7741269;22;20442;-68
2024/03/14 00:35:50;;;;;;;16.53;13.67;;;;;;;10.30;100.00;101340.59;7743658;22;20218;-69
2024/03/14 00:39:11;;;;;;;15.30;13.70;;;;;;;10.28;100.00;101343.38;7751120;22;20218;-69
2024/03/14 00:42:33;;;;;;;16.73;14.23;;;;;;;10.30;100.00;101337.88;7749733;22;20564;-69
2024/03/14 00:49:56;;;;;;;15.20;13.63;;;;;;;10.34;100.00;101342.06;7508085;23;20674;-68
2024/03/14 01:09:30;;;;;;;20.60;16.53;;;;;;;10.45;100.00;101331.28;7509497;22;20210;-69
2024/03/14 01:12:51;;;;;;;18.87;16.70;;;;;;;10.51;100.00;101327.22;7715653;22;20218;-69
2024/03/14 01:16:12;;;;;;;22.07;16.40;;;;;;;10.52;100.00;101310.03;7738746;22;20784;-69
2024/03/14 01:19:42;;;;;;;18.30;16.07;;;;;;;10.48;100.00;101327.44;7734357;22;20870;-70
2024/03/14 01:23:11;;;;;;;20.23;17.23;;;;;;;10.47;100.00;101318.53;7716112;22;20214;-71
2024/03/14 01:26:33;;;;;;;21.47;16.10;;;;;;;10.56;100.00;101320.44;7726993;22;20211;-70
2024/03/14 01:29:57;;;;;;;19.53;16.23;;;;;;;10.64;100.00;101317.97;7738863;22;20457;-70
2024/03/14 01:33:18;;;;;;;17.47;14.77;;;;;;;10.62;100.00;101313.72;7724188;22;20221;-69
2024/03/14 01:36:39;;;;;;;20.37;16.73;;;;;;;10.58;100.00;101304.13;7741036;22;20211;-69
2024/03/14 01:40:00;;;;;;;18.67;16.27;;;;;;;10.54;100.00;101303.53;7758693;22;20211;-67
2024/03/14 01:43:23;;;;;;;24.60;16.27;;;;;;;10.54;100.00;101310.75;7741248;22;20207;-68
2024/03/14 01:46:44;;;;;;;20.23;17.63;;;;;;;10.48;100.00;101300.50;7737285;22;20230;-69
2024/03/14 01:50:05;;;;;;;17.90;16.00;;;;;;;10.48;100.00;101297.78;7734727;22;20218;-69
2024/03/14 01:53:32;;;;;;;23.43;18.30;;;;;;;10.45;100.00;101297.06;7733888;22;20256;-70
2024/03/14 01:56:58;;;;;;;17.73;15.77;;;;;;;10.50;100.00;101285.91;7716182;22;20339;-67
2024/03/14 02:00:19;;;;;;;19.50;16.13;;;;;;;10.42;100.00;101286.56;7727755;22;20233;-68
2024/03/14 02:03:41;;;;;;;20.17;17.97;;;;;;;10.49;100.00;101289.59;7751036;22;20215;-68
2024/03/14 02:07:08;;;;;;;23.33;18.23;;;;;;;10.55;100.00;101281.00;7743475;22;20269;-69
2024/03/14 02:10:28;;;;;;;19.90;16.07;;;;;;;10.56;100.00;101287.22;7747177;22;20288;-69
2024/03/14 02:13:49;;;;;;;17.47;15.70;;;;;;;10.58;100.00;101280.75;7758094;22;20210;-68
2024/03/14 02:17:10;;;;;;;17.67;15.87;;;;;;;10.50;100.00;101275.13;7740365;22;20828;-70
2024/03/14 02:20:32;;;;;;;16.73;14.93;;;;;;;10.56;100.00;101274.63;7743529;22;20210;-68
2024/03/14 02:23:52;;;;;;;18.17;15.83;;;;;;;10.61;100.00;101277.81;7755435;22;20553;-69
2024/03/14 02:27:13;;;;;;;18.33;16.07;;;;;;;10.63;100.00;101272.28;7745131;22;20218;-69
2024/03/14 02:30:34;;;;;;;17.00;13.87;;;;;;;10.62;100.00;101265.19;7723664;22;20207;-70
2024/03/14 02:33:55;;;;;;;16.57;14.80;;;;;;;10.59;100.00;101266.28;7719592;22;20214;-68
2024/03/14 02:37:16;;;;;;;15.93;14.20;;;;;;;10.59;100.00;101258.22;7738710;22;20313;-68
2024/03/14 02:40:37;;;;;;;16.90;15.07;;;;;;;10.62;100.00;101259.81;7744944;22;20215;-69
2024/03/14 02:43:58;;;;;;;14.37;13.00;;;;;;;10.62;100.00;101249.84;7751823;22;20233;-68
2024/03/14 02:47:22;;;;;;;15.50;13.90;;;;;;;10.66;100.00;101251.31;7731337;22;20323;-68
2024/03/14 02:50:44;;;;;;;15.23;13.50;;;;;;;10.67;100.00;101247.63;7739955;22;20215;-68
2024/03/14 02:54:06;;;;;;;16.10;13.40;;;;;;;10.68;100.00;101246.63;7710690;22;20218;-68
2024/03/14 02:57:26;;;;;;;16.07;13.07;;;;;;;10.70;100.00;101238.44;7743248;22;20616;-69
2024/03/14 03:00:48;;;;;;;15.57;13.23;;;;;;;10.69;100.00;101245.66;7737013;22;20214;-68
2024/03/14 03:04:10;;;;;;;15.47;13.00;;;;;;;10.73;100.00;101241.72;7748333;22;20218;-69
2024/03/14 03:07:32;;;;;;;18.03;14.63;;;;;;;10.71;100.00;101234.75;7737054;22;20218;-69
2024/03/14 03:10:53;;;;;;;15.87;14.37;;;;;;;10.73;100.00;101246.25;7724222;22;20206;-69
2024/03/14 03:14:14;;;;;;;13.40;12.07;;;;;;;10.73;100.00;101244.44;7751295;22;20580;-69
2024/03/14 03:17:35;;;;;;;18.30;13.60;;;;;;;10.74;100.00;101250.69;7731809;22;20202;-69
2024/03/14 03:20:57;;;;;;;13.37;12.07;;;;;;;10.73;100.00;101247.13;7726868;22;20268;-67
2024/03/14 03:24:18;;;;;;;13.87;12.37;;;;;;;10.73;100.00;101243.56;7714160;22;20462;-68
2024/03/14 03:27:38;;;;;;;14.67;12.97;;;;;;;10.73;100.00;101238.16;7743455;22;20215;-68
2024/03/14 03:30:59;;;;;;;13.60;11.87;;;;;;;10.74;100.00;101237.19;7735193;22;20214;-69
2024/03/14 03:34:23;;;;;;;16.43;14.40;;;;;;;10.72;100.00;101231.91;7748590;22;20214;-68
2024/03/14 03:37:44;;;;;;;14.63;13.23;;;;;;;10.73;100.00;101233.63;7729366;22;20219;-68
2024/03/14 03:41:06;;;;;;;12.10;10.90;;;;;;;10.75;100.00;101231.66;7744455;22;20218;-68
2024/03/14 03:44:26;;;;;;;13.23;11.40;;;;;;;10.74;100.00;101232.66;7753694;22;20286;-68
2024/03/14 03:47:49;;;;;;;12.97;11.63;;;;;;;10.75;100.00;101241.59;7716507;22;20545;-68
2024/03/14 03:51:10;;;;;;;13.47;11.90;;;;;;;10.75;100.00;101228.97;7745231;22;20214;-68
2024/03/14 03:54:31;;;;;;;14.20;12.80;;;;;;;10.74;100.00;101229.13;7751527;22;20206;-68
2024/03/14 03:57:53;;;;;;;14.47;12.97;;;;;;;10.75;100.00;101223.59;7747600;22;20614;-69
2024/03/14 04:01:20;;;;;;;12.10;10.97;;;;;;;10.77;100.00;101208.13;7727673;22;20254;-69
2024/03/14 04:04:43;;;;;;;11.43;10.23;;;;;;;10.77;100.00;101218.91;7736303;22;20599;-68
2024/03/14 04:08:04;;;;;;;13.30;11.70;;;;;;;10.76;100.00;101219.91;7724805;22;20541;-68
2024/03/14 04:11:28;;;;;;;12.63;11.03;;;;;;;10.76;100.00;101210.97;7747674;22;20578;-68
2024/03/14 04:14:51;;;;;;;14.20;12.23;;;;;;;10.75;100.00;101214.63;7735246;22;20210;-69
2024/03/14 04:18:15;;;;;;;12.17;10.97;;;;;;;10.74;100.00;101205.72;7709687;22;20218;-69
2024/03/14 04:21:36;;;;;;;13.80;11.90;;;;;;;10.75;100.00;101206.53;7744914;22;20293;-68
2024/03/14 04:24:57;;;;;;;12.63;11.33;;;;;;;10.72;100.00;101213.03;7736679;22;20222;-69
2024/03/14 04:28:18;;;;;;;10.67;9.77;;;;;;;10.74;100.00;101208.41;7733809;22;20214;-69
2024/03/14 04:31:39;;;;;;;12.20;9.90;;;;;;;10.74;100.00;101211.09;7716016;22;20301;-68
2024/03/14 04:35:01;;;;;;;13.03;11.87;;;;;;;10.73;100.00;101203.97;7722523;22;20215;-68
2024/03/14 04:38:23;;;;;;;11.87;10.53;;;;;;;10.74;100.00;101207.53;7747425;22;20556;-68
2024/03/14 04:41:44;;;;;;;27.23;11.83;;;;;;;10.74;100.00;101205.72;7742542;22;20218;-68
2024/03/14 04:45:07;;;;;;;11.97;10.47;;;;;;;10.74;100.00;101207.53;7725578;22;20583;-69
2024/03/14 04:48:29;;;;;;;11.77;9.93;;;;;;;10.74;100.00;101205.72;7677131;23;20211;-68
2024/03/14 04:51:53;;;;;;;12.37;10.97;;;;;;;10.75;100.00;101199.31;7742603;22;20210;-68
2024/03/14 04:55:14;;;;;;;11.77;10.67;;;;;;;10.76;100.00;101205.56;7747539;22;20210;-67
2024/03/14 04:58:37;;;;;;;11.57;10.40;;;;;;;10.75;100.00;101199.31;7751834;22;20210;-68
2024/03/14 05:01:58;;;;;;;12.33;11.13;;;;;;;10.76;100.00;101195.66;7732012;22;20452;-69
2024/03/14 05:05:20;;;;;;;11.47;10.37;;;;;;;10.79;100.00;101203.47;7741958;22;20218;-70
2024/03/14 05:08:42;;;;;;;13.43;11.30;;;;;;;10.78;100.00;101196.38;7751354;22;20770;-68
2024/03/14 05:12:03;;;;;;;10.40;9.30;;;;;;;10.75;100.00;101198.44;7742167;22;20210;-68
2024/03/14 05:15:24;;;;;;;13.20;11.53;;;;;;;10.77;100.00;101201.88;7726793;22;20289;-68
2024/03/14 05:18:45;;;;;;;12.93;11.07;;;;;;;10.77;100.00;101204.56;7749495;22;20230;-69
2024/03/14 05:22:06;;;;;;;12.07;10.20;;;;;;;10.78;100.00;101203.59;7748633;22;20214;-69
2024/03/14 05:25:27;;;;;;;11.60;9.57;;;;;;;10.75;100.00;101199.31;7747875;22;20207;-69
2024/03/14 05:28:48;;;;;;;12.10;10.93;;;;;;;10.76;100.00;101203.75;7745763;22;20218;-69
2024/03/14 05:32:11;;;;;;;10.87;9.77;;;;;;;10.74;100.00;101213.78;7735340;22;20305;-68
2024/03/14 05:35:32;;;;;;;10.30;9.40;;;;;;;10.70;100.00;101206.09;7741718;22;20846;-68
2024/03/14 05:38:53;;;;;;;11.33;10.27;;;;;;;10.70;100.00;101201.53;7727540;22;20211;-68
2024/03/14 05:42:17;;;;;;;13.13;10.07;;;;;;;10.70;100.00;101211.47;7746959;22;20555;-69
2024/03/14 05:45:38;;;;;;;11.43;10.20;;;;;;;10.68;100.00;101210.75;7741212;22;20214;-69
2024/03/14 05:48:59;;;;;;;12.43;9.87;;;;;;;10.67;100.00;101214.41;7736664;22;20576;-69
2024/03/14 05:52:20;;;;;;;11.90;10.67;;;;;;;10.64;100.00;101202.03;7741764;22;20224;-69
2024/03/14 05:55:41;;;;;;;10.73;9.67;;;;;;;10.59;100.00;101207.00;7743755;22;20301;-68
2024/03/14 05:59:04;;;;;;;13.57;12.17;;;;;;;10.58;100.00;101204.41;7732083;22;20210;-68
2024/03/14 06:02:25;;;;;;;13.03;11.83;;;;;;;10.58;100.00;101205.25;7731363;22;20207;-69
2024/03/14 06:05:49;;;;;;;14.17;12.63;;;;;;;10.56;100.00;101209.91;7744405;22;20583;-68
2024/03/14 06:09:14;;;;;;;12.07;10.97;;;;;;;10.59;100.00;101203.44;7752548;22;20215;-68
2024/03/14 06:12:37;;;;;;;11.83;10.63;;;;;;;10.51;100.00;101208.59;7744674;22;20222;-69
2024/03/14 06:15:58;;;;;;;14.03;12.53;;;;;;;10.50;100.00;101215.81;7703855;22;20463;-68
2024/03/14 06:19:21;;;;;;;15.40;12.70;;;;;;;10.40;100.00;101215.75;7726778;22;20210;-69
2024/03/14 06:22:45;;;;;;;14.77;13.20;;;;;;;10.44;100.00;101219.03;7739614;22;20210;-69
2024/03/14 06:26:06;;;;;;;13.87;12.53;;;;;;;10.72;100.00;101221.13;7739376;22;20218;-71
2024/03/14 06:29:27;;;;;;;12.43;11.13;;;;;;;10.82;100.00;101214.00;7748545;22;20245;-69
2024/03/14 06:32:49;;;;;;;14.30;12.80;;;;;;;10.69;100.00;101209.75;7740923;22;20545;-70
2024/03/14 06:36:11;;;;;;;11.43;9.90;;;;;;;10.66;100.00;101224.34;7737442;22;20814;-67
2024/03/14 06:39:34;;;;;;;13.23;11.63;;;;;;;10.54;100.00;101214.59;7745617;22;20466;-68
2024/03/14 06:42:55;;;;;;;11.63;10.53;;;;;;;10.59;100.00;101216.91;7745117;22;20218;-69
2024/03/14 06:46:20;;;;;;;14.20;12.20;;;;;;;10.71;100.00;101223.97;7739743;22;20624;-68
2024/03/14 06:49:42;;;;;;;13.40;12.23;;;;;;;10.71;100.00;101214.03;7749437;22;20222;-68
2024/03/14 06:53:03;;;;;;;13.70;12.30;;;;;;;10.75;100.00;101220.88;7726791;22;20230;-67
2024/03/14 06:56:24;;;;;;;14.20;12.80;;;;;;;10.79;100.00;101216.94;7722445;22;20210;-68
2024/03/14 06:59:48;;;;;;;16.77;11.10;;;;;;;10.86;100.00;101214.59;7752756;22;20210;-67
2024/03/14 07:03:09;;;;;;;12.17;10.87;;;;;;;10.85;100.00;101221.81;7740766;22;20301;-68
2024/03/14 07:06:31;;;;;;;12.60;11.10;;;;;;;10.88;100.00;101218.00;7740358;22;20499;-67
2024/03/14 07:09:53;;;;;;;11.20;10.03;;;;;;;10.78;100.00;101231.44;7745024;22;20210;-68
2024/03/14 07:13:13;;;;;;;13.90;9.87;;;;;;;10.80;100.00;101221.38;7750185;22;20497;-67
2024/03/14 07:16:35;;;;;;;11.70;10.50;;;;;;;10.85;100.00;101218.25;7712665;22;20286;-70
2024/03/14 07:19:56;;;;;;;13.67;12.27;;;;;;;10.82;100.00;101218.53;7746910;22;20263;-69
2024/03/14 07:23:20;;;;;;;10.37;9.47;;;;;;;10.74;100.00;101229.13;7747675;22;20218;-70
2024/03/14 07:26:41;;;;;;;11.47;10.27;;;;;;;10.69;100.00;101226.78;7724216;22;20568;-69
2024/03/14 07:30:04;;;;;;;11.37;10.33;;;;;;;10.75;100.00;101228.09;7750121;22;20214;-68
2024/03/14 07:33:26;;;;;;;10.63;9.53;;;;;;;10.78;100.00;101227.88;7747637;22;20206;-68
2024/03/14 07:36:47;;;;;;;10.67;9.63;;;;;;;10.80;100.00;101234.84;7723321;22;20241;-69
2024/03/14 07:40:11;;;;;;;10.30;9.40;;;;;;;10.86;100.00;101219.97;7726174;22;20293;-69
2024/03/14 07:43:34;;;;;;;11.97;10.83;;;;;;;10.90;100.00;101229.53;7734576;22;20210;-69
2024/03/14 07:46:54;;;;;;;10.57;9.57;;;;;;;10.99;100.00;101224.19;7731013;22;20226;-67
2024/03/14 07:50:16;;;;;;;10.70;9.60;;;;;;;11.06;100.00;101224.53;7722649;22;20497;-68
2024/03/14 07:53:37;;;;;;;11.53;10.53;;;;;;;11.17;100.00;101230.75;7730210;22;20211;-69
2024/03/14 07:56:58;;;;;;;9.30;8.40;;;;;;;11.30;100.00;101240.47;7742281;22;20214;-68
2024/03/14 08:00:21;;;;;;;9.93;9.13;;;;;;;11.41;100.00;101232.31;7710475;22;20218;-66
2024/03/14 08:03:43;;;;;;;11.07;10.07;;;;;;;11.58;100.00;101237.09;7745109;22;20225;-68
2024/03/14 08:07:10;;;;;;;10.10;8.33;;;;;;;11.61;100.00;101229.59;7719577;22;20571;-66
2024/03/14 08:10:32;;;;;;;10.10;9.10;;;;;;;11.78;100.00;101233.53;7722278;22;20202;-67
2024/03/14 08:13:58;;;;;;;10.93;8.97;;;;;;;11.62;100.00;101231.28;7730105;22;20214;-67
2024/03/14 08:17:20;;;;;;;10.77;9.77;;;;;;;11.76;100.00;101231.00;7717069;22;20305;-68
2024/03/14 08:20:41;;;;;;;9.80;8.80;;;;;;;11.76;100.00;101243.63;7725343;22;20452;-68
2024/03/14 08:24:09;;;;;;;9.93;9.03;;;;;;;11.83;100.00;101226.72;7732160;22;20210;-68
2024/03/14 08:27:31;;;;;;;9.73;8.93;;;;;;;11.99;100.00;101231.66;7727308;22;20213;-68
2024/03/14 08:30:52;;;;;;;10.67;9.27;;;;;;;12.06;100.00;101224.69;7723567;22;20210;-67
2024/03/14 08:34:13;;;;;;;10.07;8.43;;;;;;;12.04;100.00;101238.34;7731656;22;20222;-67
2024/03/14 08:37:34;;;;;;;8.67;7.83;;;;;;;12.08;100.00;101230.81;7722880;22;20211;-69
2024/03/14 08:40:57;;;;;;;8.23;7.53;;;;;;;12.14;100.00;101230.25;7723091;22;20207;-70
2024/03/14 08:44:18;;;;;;;9.43;8.53;;;;;;;12.31;100.00;101212.50;7730250;22;20298;-67
2024/03/14 08:47:38;;;;;;;8.57;7.77;;;;;;;12.25;100.00;101218.47;7740570;22;20293;-66
2024/03/14 08:50:59;;;;;;;8.80;7.10;;;;;;;12.39;100.00;101215.41;7720656;22;20294;-68
2024/03/14 08:54:33;;;;;;;8.50;7.63;;;;;;;12.66;100.00;101216.41;7710117;22;20215;-68
2024/03/14 08:57:55;;;;;;;8.67;7.67;;;;;;;12.76;100.00;101225.41;7723207;22;20210;-67
2024/03/14 09:01:17;;;;;;;9.83;8.17;;;;;;;12.75;100.00;101225.53;7702028;22;20453;-68
2024/03/14 09:04:41;;;;;;;13.43;8.23;;;;;;;12.78;100.00;101206.31;7729531;22;20448;-68
2024/03/14 09:08:02;;;;;;;8.80;8.00;;;;;;;12.79;100.00;101214.28;7720596;22;20222;-68
2024/03/14 09:11:23;;;;;;;8.30;7.50;;;;;;;12.99;100.00;101212.44;7729720;22;20439;-68
2024/03/14 09:14:44;;;;;;;9.37;8.47;;;;;;;13.18;100.00;101217.03;7734658;22;20458;-68
2024/03/14 09:18:06;;;;;;;9.13;6.23;;;;;;;13.00;100.00;101214.16;7694948;22;20211;-68
2024/03/14 09:21:28;;;;;;;8.03;7.23;;;;;;;13.00;100.00;101206.03;7748848;22;20203;-67
2024/03/14 09:24:49;;;;;;;8.17;7.27;;;;;;;12.91;100.00;101206.91;7738036;22;20291;-68
2024/03/14 09:28:11;;;;;;;7.97;7.27;;;;;;;13.21;100.00;101214.00;7736478;22;20218;-67
2024/03/14 09:31:32;;;;;;;7.83;7.13;;;;;;;13.41;100.00;101221.94;7703641;22;20203;-68
2024/03/14 09:34:53;;;;;;;7.60;6.70;;;;;;;13.34;100.00;101223.56;7734500;22;20497;-67
2024/03/14 09:38:15;;;;;;;7.73;6.97;;;;;;;13.56;100.00;101211.50;7734761;22;20214;-68
2024/03/14 09:41:36;;;;;;;7.17;6.50;;;;;;;13.97;100.00;101208.38;7730099;22;20210;-67
2024/03/14 09:44:56;;;;;;;7.73;7.00;;;;;;;14.23;100.00;101206.66;7739317;22;20214;-67
2024/03/14 09:48:19;;;;;;;6.83;6.17;;;;;;;14.23;100.00;101200.38;7731976;22;20222;-68
2024/03/14 09:51:40;;;;;;;8.20;6.37;;;;;;;14.25;100.00;101198.34;7752558;22;20210;-68
2024/03/14 09:55:01;;;;;;;7.60;6.80;;;;;;;13.84;100.00;101210.56;7738218;22;20449;-67
2024/03/14 09:58:22;;;;;;;7.13;5.87;;;;;;;14.20;100.00;101209.69;7740074;22;20470;-68
2024/03/14 10:01:44;;;;;;;6.73;5.57;;;;;;;14.29;100.00;101203.38;7727574;22;20222;-67
2024/03/14 10:05:07;;;;;;;6.47;5.87;;;;;;;14.18;100.00;101202.69;7737241;22;20218;-67
2024/03/14 10:08:31;;;;;;;6.03;5.43;;;;;;;14.15;100.00;101205.69;7732812;22;20238;-68
2024/03/14 10:11:58;;;;;;;6.53;5.70;;;;;;;14.74;100.00;101206.06;7726961;22;20505;-67
2024/03/14 10:15:20;;;;;;;5.30;4.80;;;;;;;15.22;100.00;101200.19;7744536;22;20218;-67
2024/03/14 10:18:42;;;;;;;5.77;5.17;;;;;;;15.50;100.00;101190.09;7729890;22;20214;-67
2024/03/14 10:22:03;;;;;;;4.97;4.57;;;;;;;15.68;100.00;101183.56;7748931;22;20214;-68
2024/03/14 10:25:25;;;;;;;5.87;5.37;;;;;;;16.47;100.00;101185.91;7751375;22;20478;-67
2024/03/14 10:28:46;;;;;;;5.07;4.20;;;;;;;15.97;100.00;101189.50;7740486;22;20214;-67
2024/03/14 10:32:10;;;;;;;7.20;4.00;;;;;;;15.37;100.00;101182.31;7700480;22;20215;-67
2024/03/14 10:35:31;;;;;;;5.47;4.53;;;;;;;15.70;100.00;101177.97;7741729;22;20207;-67
2024/03/14 10:38:52;;;;;;;5.40;4.90;;;;;;;15.90;100.00;101187.56;7729998;22;20210;-66
2024/03/14 10:42:13;;;;;;;4.47;4.15;;;;;;;18.36;100.00;101179.72;7726992;22;20222;-66
2024/03/14 10:45:35;;;;;;;4.47;3.78;;;;;;;20.31;100.00;101168.69;7724988;22;20211;-66
2024/03/14 10:48:56;;;;;;;6.05;4.20;;;;;;;20.16;100.00;101163.22;7729908;22;20248;-67
2024/03/14 10:52:17;;;;;;;3.60;3.30;;;;;;;19.44;100.00;101169.56;7744731;22;20215;-66
2024/03/14 10:55:39;;;;;;;3.83;3.40;;;;;;;18.29;100.00;101166.97;7724192;22;20210;-67
2024/03/14 10:59:00;;;;;;;4.57;3.97;;;;;;;17.55;100.00;101161.97;7733848;22;20853;-68
2024/03/14 11:02:21;;;;;;;4.85;4.15;;;;;;;16.10;100.00;101180.00;7717671;22;20214;-67
2024/03/14 11:05:42;;;;;;;4.30;3.90;;;;;;;16.09;100.00;101176.44;7722968;22;20210;-68
2024/03/14 11:09:03;;;;;;;4.72;4.28;;;;;;;16.58;100.00;101161.13;7728173;22;20211;-66
2024/03/14 11:12:26;;;;;;;5.30;4.65;;;;;;;16.97;100.00;101162.19;7726111;22;20303;-67
2024/03/14 11:15:47;;;;;;;3.58;3.28;;;;;;;16.76;100.00;101162.69;7722823;22;20214;-67
2024/03/14 11:19:08;;;;;;;4.28;3.70;;;;;;;16.10;100.00;101160.97;7728034;22;20210;-67
2024/03/14 11:22:29;;;;;;;5.28;3.78;;;;;;;16.08;100.00;101174.75;7723267;22;20659;-69
2024/03/14 11:25:52;;;;;;;4.15;3.72;;;;;;;15.75;100.00;101165.56;7724200;22;20222;-67
2024/03/14 11:29:15;;;;;;;4.57;3.63;;;;;;;15.83;100.00;101165.59;7754995;22;20214;-67
2024/03/14 11:32:36;;;;;;;4.23;3.83;;;;;;;15.96;100.00;101162.44;7720096;22;20214;-67
2024/03/14 11:35:57;;;;;;;4.03;3.50;;;;;;;16.30;100.00;101157.81;7725068;22;20218;-65
2024/03/14 11:39:22;;;;;;;5.87;3.67;;;;;;;16.16;100.00;101154.88;7729038;22;20218;-68
2024/03/14 11:42:48;;;;;;;3.70;3.40;;;;;;;16.33;100.00;101152.03;7746239;22;20215;-68
2024/03/14 11:46:10;;;;;;;5.18;3.85;;;;;;;16.17;100.00;101157.41;7719011;22;20218;-69
2024/03/14 11:49:33;;;;;;;5.72;4.20;;;;;;;16.42;100.00;101142.00;7732916;22;20235;-68
2024/03/14 11:52:54;;;;;;;3.67;3.38;;;;;;;16.53;100.00;101144.44;7724029;22;20238;-68
2024/03/14 11:56:15;;;;;;;4.60;3.65;;;;;;;17.03;100.00;101136.97;7727456;22;20297;-69
2024/03/14 11:59:38;;;;;;;3.15;2.60;;;;;;;17.54;100.00;101141.19;7734984;22;20210;-69
2024/03/14 12:03:00;;;;;;;3.58;3.28;;;;;;;18.53;100.00;101139.53;7743001;22;20218;-67
2024/03/14 12:06:22;;;;;;;3.67;3.28;;;;;;;19.50;100.00;101134.09;7728960;22;20297;-68
2024/03/14 12:09:43;;;;;;;5.25;3.30;;;;;;;18.91;100.00;101111.25;7733108;22;20459;-68
2024/03/14 12:13:12;;;;;;;5.60;3.50;;;;;;;21.82;100.00;101110.63;7638051;22;20214;-68
2024/03/14 12:16:34;;;;;;;4.25;3.85;;;;;;;21.62;92.62;101112.34;7716622;22;20210;-68
2024/03/14 12:19:56;;;;;;;4.25;3.85;;;;;;;21.25;89.14;101110.84;7732600;22;20210;-67
2024/03/14 12:23:17;;;;;;;5.05;4.63;;;;;;;20.40;93.21;101099.91;7727654;22;20271;-66
2024/03/14 12:26:39;;;;;;;3.80;3.20;;;;;;;20.91;92.19;101099.78;7724175;22;20210;-68
2024/03/14 12:30:00;;;;;;;3.90;3.60;;;;;;;20.26;96.00;101106.28;7735884;22;20218;-69
2024/03/14 12:33:21;;;;;;;7.10;3.50;;;;;;;20.59;94.03;101095.69;7724442;22;20247;-68
2024/03/14 12:36:42;;;;;;;4.68;3.60;;;;;;;21.53;89.87;101094.38;7719201;22;20214;-66
2024/03/14 12:40:07;;;;;;;3.53;2.65;;;;;;;21.42;85.07;101091.13;7729125;22;20210;-64
2024/03/14 12:43:30;;;;;;;4.00;3.47;;;;;;;19.69;90.47;101100.69;7754405;22;20210;-66
2024/03/14 12:46:52;;;;;;;3.90;3.60;;;;;;;20.30;93.05;101082.09;7721073;22;20219;-69
2024/03/14 12:50:22;;;;;;;2.80;2.60;;;;;;;22.00;87.69;101077.97;7721578;22;20218;-69
2024/03/14 12:53:43;;;;;;;3.70;3.30;;;;;;;21.07;85.48;101077.59;7753475;22;20210;-69
2024/03/14 12:57:05;;;;;;;3.40;3.10;;;;;;;20.89;86.46;101090.91;7718986;22;20218;-67
2024/03/14 13:00:27;;;;;;;4.28;3.50;;;;;;;20.08;89.01;101083.09;7720789;22;20222;-68
2024/03/14 13:03:50;;;;;;;3.20;2.67;;;;;;;21.15;85.89;101075.53;7733089;22;20674;-68
2024/03/14 13:07:18;;;;;;;4.28;2.67;;;;;;;20.09;88.20;101068.38;7723955;22;20214;-67
2024/03/14 13:10:40;;;;;;;3.83;3.05;;;;;;;19.23;93.15;101063.63;7729803;22;20401;-67
2024/03/14 13:14:11;;;;;;;2.83;2.63;;;;;;;18.77;99.47;101071.06;7751456;22;20234;-67
2024/03/14 13:17:33;;;;;;;3.35;2.83;;;;;;;21.38;87.95;101076.13;7723355;22;20210;-67
2024/03/14 13:20:56;;;;;;;5.85;3.88;;;;;;;20.02;89.42;101068.28;7723178;22;20529;-68
2024/03/14 13:24:19;;;;;;;5.50;2.85;;;;;;;17.85;96.96;101073.06;7731359;22;20215;-67
2024/03/14 13:27:40;;;;;;;2.50;2.30;;;;;;;18.83;97.29;101062.13;7723504;22;20210;-68
2024/03/14 13:31:02;;;;;;;2.97;2.75;;;;;;;19.29;93.68;101073.81;7717044;22;20957;-68
2024/03/14 13:34:23;;;;;;;5.15;2.40;;;;;;;18.97;94.54;101061.31;7725813;22;20648;-70
2024/03/14 13:37:44;;;;;;;2.42;2.22;;;;;;;18.15;96.17;101050.34;7722078;22;20211;-69
2024/03/14 13:41:04;;;;;;;5.78;3.58;;;;;;;19.80;93.22;101050.09;7725286;22;20214;-65
2024/03/14 13:44:25;;;;;;;3.03;2.72;;;;;;;20.86;85.33;101053.75;7730611;22;20218;-67
2024/03/14 13:47:46;;;;;;;2.90;2.60;;;;;;;22.77;76.18;101037.97;7714322;22;20222;-68
2024/03/14 13:51:07;;;;;;;3.65;3.30;;;;;;;22.07;74.17;101051.38;7684980;22;20440;-70
2024/03/14 13:54:28;;;;;;;3.08;2.70;;;;;;;21.20;75.98;101058.47;7730968;22;20301;-70
2024/03/14 13:57:49;;;;;;;2.30;2.10;;;;;;;20.67;80.86;101060.78;7745296;22;20214;-69
2024/03/14 14:01:19;;;;;;;4.15;3.78;;;;;;;21.22;79.23;101059.13;7714588;22;20218;-69
2024/03/14 14:04:39;;;;;;;3.50;2.97;;;;;;;18.78;86.93;101034.50;7731535;22;20241;-68
2024/03/14 14:08:01;;;;;;;3.47;3.17;;;;;;;18.48;92.20;101038.22;7727521;22;20301;-70
2024/03/14 14:11:23;;;;;;;3.90;3.60;;;;;;;19.07;91.98;101033.69;7724345;22;20219;-68
2024/03/14 14:14:44;;;;;;;4.63;3.70;;;;;;;18.61;96.25;101037.59;7733588;22;20210;-70
2024/03/14 14:18:07;;;;;;;5.28;3.20;;;;;;;18.89;99.50;101027.75;7715944;22;20214;-67
2024/03/14 14:21:30;;;;;;;4.82;3.88;;;;;;;19.12;95.23;101029.38;7750754;22;20210;-67
2024/03/14 14:24:51;;;;;;;3.22;2.85;;;;;;;21.48;84.66;101018.16;7713160;22;20682;-67
2024/03/14 14:28:12;;;;;;;3.65;3.35;;;;;;;21.01;78.70;101029.00;7714422;22;20491;-67
2024/03/14 14:31:32;;;;;;;3.90;3.42;;;;;;;21.18;79.08;101023.03;7722218;22;20215;-68
2024/03/14 14:34:54;;;;;;;3.63;3.33;;;;;;;20.26;78.01;101023.28;7730376;22;20210;-68
2024/03/14 14:38:15;;;;;;;3.75;3.45;;;;;;;19.73;81.90;101027.31;7732248;22;20268;-67
2024/03/14 14:41:36;;;;;;;3.80;3.05;;;;;;;20.72;78.55;101019.06;7729153;22;20971;-68
2024/03/14 14:44:57;;;;;;;3.22;3.03;;;;;;;20.69;78.58;101012.09;7733738;22;20309;-67
2024/03/14 14:48:19;;;;;;;3.35;3.05;;;;;;;19.56;84.38;101013.00;7726902;22;20218;-68
2024/03/14 14:51:40;;;;;;;3.50;3.00;;;;;;;18.84;88.68;101002.84;7729315;22;20550;-71
2024/03/14 14:55:01;;;;;;;3.38;3.03;;;;;;;19.81;91.30;100999.81;7738801;22;20221;-69
2024/03/14 14:58:22;;;;;;;4.75;3.22;;;;;;;20.22;88.94;100994.59;7748556;22;20392;-70
2024/03/14 15:01:43;;;;;;;3.75;3.25;;;;;;;19.81;87.26;100988.88;7726211;22;20210;-69
2024/03/14 15:05:05;;;;;;;4.72;4.32;;;;;;;18.47;92.13;100984.63;7715454;22;20210;-68
2024/03/14 15:08:27;;;;;;;7.05;3.20;;;;;;;18.18;100.00;100992.69;7732490;22;20507;-67
2024/03/14 15:11:48;;;;;;;3.97;3.67;;;;;;;18.60;97.41;100990.31;7726694;22;20211;-68
2024/03/14 15:15:11;;;;;;;5.38;3.85;;;;;;;19.11;93.50;100975.75;7718365;22;20218;-67
2024/03/14 15:18:32;;;;;;;2.80;2.60;;;;;;;17.53;100.00;100987.66;7731126;22;20206;-66
2024/03/14 15:21:53;;;;;;;3.75;3.45;;;;;;;17.65;100.00;100981.81;7720651;22;20484;-71
2024/03/14 15:25:16;;;;;;;3.88;3.30;;;;;;;18.46;99.89;100980.19;7728154;22;20214;-71
2024/03/14 15:28:39;;;;;;;4.10;3.70;;;;;;;18.59;98.49;100974.94;7735425;22;20214;-71
2024/03/14 15:32:01;;;;;;;3.58;3.28;;;;;;;18.62;97.34;100971.88;7726310;22;20222;-70
2024/03/14 15:35:25;;;;;;;3.92;3.50;;;;;;;17.70;99.60;100972.06;7723165;22;20259;-71
2024/03/14 15:38:46;;;;;;;4.20;3.80;;;;;;;17.42;100.00;100971.66;7729915;22;20202;-70
2024/03/14 15:42:07;;;;;;;5.47;3.72;;;;;;;17.45;100.00;100962.28;7721635;22;20214;-67